sensor_id;sensor_type;location;lat;lon;timestamp;temperature;humidity
8152;DHT22;4117;53.622;9.958;2023-03-04T00:02:22;5.30;22.40
8152;DHT22;4117;53.622;9.958;2023-03-04T00:04:49;5.30;24.00
8152;DHT22;4117;53.622;9.958;2023-03-04T00:07:16;5.30;21.90
8152;DHT22;4117;53.622;9.958;2023-03-04T00:09:45;5.30;20.70
8152;DHT22;4117;53.622;9.958;2023-03-04T00:12:12;5.30;24.30
8152;DHT22;4117;53.622;9.958;2023-03-04T00:14:39;5.30;24.10
8152;DHT22;4117;53.622;9.958;2023-03-04T00:17:06;5.30;24.10
8152;DHT22;4117;53.622;9.958;2023-03-04T00:19:33;5.30;23.80
8152;DHT22;4117;53.622;9.958;2023-03-04T00:22:01;5.30;18.60
8152;DHT22;4117;53.622;9.958;2023-03-04T00:24:28;5.30;23.80
8152;DHT22;4117;53.622;9.958;2023-03-04T00:26:56;5.30;23.10
8152;DHT22;4117;53.622;9.958;2023-03-04T00:29:23;5.30;23.40
8152;DHT22;4117;53.622;9.958;2023-03-04T00:31:50;5.30;19.10
8152;DHT22;4117;53.622;9.958;2023-03-04T00:34:17;5.30;19.40
8152;DHT22;4117;53.622;9.958;2023-03-04T00:36:44;5.40;20.90
8152;DHT22;4117;53.622;9.958;2023-03-04T00:39:11;5.40;21.40
8152;DHT22;4117;53.622;9.958;2023-03-04T00:41:38;5.40;21.20
8152;DHT22;4117;53.622;9.958;2023-03-04T00:44:06;5.40;16.90
8152;DHT22;4117;53.622;9.958;2023-03-04T00:46:33;5.40;22.00
8152;DHT22;4117;53.622;9.958;2023-03-04T00:49:00;5.40;21.70
8152;DHT22;4117;53.622;9.958;2023-03-04T00:51:28;5.40;18.30
8152;DHT22;4117;53.622;9.958;2023-03-04T00:53:55;5.40;21.10
8152;DHT22;4117;53.622;9.958;2023-03-04T00:56:22;5.40;19.80
8152;DHT22;4117;53.622;9.958;2023-03-04T00:58:49;5.40;20.20
8152;DHT22;4117;53.622;9.958;2023-03-04T01:01:18;5.40;20.80
8152;DHT22;4117;53.622;9.958;2023-03-04T01:03:45;5.40;19.80
8152;DHT22;4117;53.622;9.958;2023-03-04T01:06:12;5.40;20.30
8152;DHT22;4117;53.622;9.958;2023-03-04T01:08:39;5.40;18.90
8152;DHT22;4117;53.622;9.958;2023-03-04T01:11:06;5.50;19.00
8152;DHT22;4117;53.622;9.958;2023-03-04T01:13:33;5.40;15.70
8152;DHT22;4117;53.622;9.958;2023-03-04T01:16:00;5.50;19.20
8152;DHT22;4117;53.622;9.958;2023-03-04T01:18:31;5.50;19.00
8152;DHT22;4117;53.622;9.958;2023-03-04T01:20:58;5.50;23.20
8152;DHT22;4117;53.622;9.958;2023-03-04T01:23:25;5.50;19.60
8152;DHT22;4117;53.622;9.958;2023-03-04T01:25:52;5.50;19.80
8152;DHT22;4117;53.622;9.958;2023-03-04T01:28:19;5.50;22.70
8152;DHT22;4117;53.622;9.958;2023-03-04T01:30:46;5.50;19.30
8152;DHT22;4117;53.622;9.958;2023-03-04T01:33:13;5.50;17.70
8152;DHT22;4117;53.622;9.958;2023-03-04T01:35:42;5.50;17.80
8152;DHT22;4117;53.622;9.958;2023-03-04T01:38:09;5.50;21.70
8152;DHT22;4117;53.622;9.958;2023-03-04T01:40:37;5.50;16.50
8152;DHT22;4117;53.622;9.958;2023-03-04T01:43:05;5.50;21.70
8152;DHT22;4117;53.622;9.958;2023-03-04T01:45:32;5.50;19.10
8152;DHT22;4117;53.622;9.958;2023-03-04T01:48:00;5.50;20.20
8152;DHT22;4117;53.622;9.958;2023-03-04T01:50:29;5.50;19.10
8152;DHT22;4117;53.622;9.958;2023-03-04T01:52:58;5.50;19.00
8152;DHT22;4117;53.622;9.958;2023-03-04T01:55:25;5.50;17.80
8152;DHT22;4117;53.622;9.958;2023-03-04T01:57:52;5.50;21.50
8152;DHT22;4117;53.622;9.958;2023-03-04T02:00:24;5.50;19.00
8152;DHT22;4117;53.622;9.958;2023-03-04T02:02:54;5.50;18.60
8152;DHT22;4117;53.622;9.958;2023-03-04T02:05:22;5.50;16.60
8152;DHT22;4117;53.622;9.958;2023-03-04T02:07:50;5.50;18.60
8152;DHT22;4117;53.622;9.958;2023-03-04T02:10:19;5.50;18.40
8152;DHT22;4117;53.622;9.958;2023-03-04T02:12:46;5.50;18.80
8152;DHT22;4117;53.622;9.958;2023-03-04T02:15:14;5.50;22.00
8152;DHT22;4117;53.622;9.958;2023-03-04T02:17:41;5.60;21.60
8152;DHT22;4117;53.622;9.958;2023-03-04T02:20:17;5.60;18.60
8152;DHT22;4117;53.622;9.958;2023-03-04T02:22:53;5.50;20.30
8152;DHT22;4117;53.622;9.958;2023-03-04T02:25:30;5.60;20.40
8152;DHT22;4117;53.622;9.958;2023-03-04T02:28:00;5.60;20.00
8152;DHT22;4117;53.622;9.958;2023-03-04T02:30:27;5.60;17.40
8152;DHT22;4117;53.622;9.958;2023-03-04T02:32:54;5.60;23.80
8152;DHT22;4117;53.622;9.958;2023-03-04T02:35:21;5.60;20.70
8152;DHT22;4117;53.622;9.958;2023-03-04T02:37:48;5.50;17.40
8152;DHT22;4117;53.622;9.958;2023-03-04T02:40:20;5.60;24.20
8152;DHT22;4117;53.622;9.958;2023-03-04T02:42:48;5.50;22.20
8152;DHT22;4117;53.622;9.958;2023-03-04T02:45:36;5.60;22.60
8152;DHT22;4117;53.622;9.958;2023-03-04T02:48:03;5.50;23.70
8152;DHT22;4117;53.622;9.958;2023-03-04T02:50:34;5.50;24.20
8152;DHT22;4117;53.622;9.958;2023-03-04T02:53:01;5.60;24.30
8152;DHT22;4117;53.622;9.958;2023-03-04T02:55:28;5.60;24.20
8152;DHT22;4117;53.622;9.958;2023-03-04T02:57:56;5.60;20.50
8152;DHT22;4117;53.622;9.958;2023-03-04T03:00:24;5.50;24.30
8152;DHT22;4117;53.622;9.958;2023-03-04T03:02:52;5.60;21.60
8152;DHT22;4117;53.622;9.958;2023-03-04T03:05:21;5.60;24.30
8152;DHT22;4117;53.622;9.958;2023-03-04T03:07:49;5.60;24.30
8152;DHT22;4117;53.622;9.958;2023-03-04T03:10:16;5.60;24.30
8152;DHT22;4117;53.622;9.958;2023-03-04T03:12:43;5.50;24.20
8152;DHT22;4117;53.622;9.958;2023-03-04T03:15:10;5.60;24.30
8152;DHT22;4117;53.622;9.958;2023-03-04T03:17:37;5.60;24.30
8152;DHT22;4117;53.622;9.958;2023-03-04T03:20:07;5.60;25.60
8152;DHT22;4117;53.622;9.958;2023-03-04T03:22:35;5.60;24.30
8152;DHT22;4117;53.622;9.958;2023-03-04T03:25:02;5.60;19.40
8152;DHT22;4117;53.622;9.958;2023-03-04T03:27:29;5.60;24.30
8152;DHT22;4117;53.622;9.958;2023-03-04T03:29:56;5.60;24.30
8152;DHT22;4117;53.622;9.958;2023-03-04T03:32:23;5.60;24.30
8152;DHT22;4117;53.622;9.958;2023-03-04T03:34:50;5.60;24.30
8152;DHT22;4117;53.622;9.958;2023-03-04T03:37:19;5.60;24.50
8152;DHT22;4117;53.622;9.958;2023-03-04T03:39:46;5.60;22.30
8152;DHT22;4117;53.622;9.958;2023-03-04T03:42:12;5.60;26.50
8152;DHT22;4117;53.622;9.958;2023-03-04T03:44:39;5.60;24.30
8152;DHT22;4117;53.622;9.958;2023-03-04T03:47:06;5.60;25.00
8152;DHT22;4117;53.622;9.958;2023-03-04T03:49:33;5.60;29.40
8152;DHT22;4117;53.622;9.958;2023-03-04T03:52:00;5.60;26.90
8152;DHT22;4117;53.622;9.958;2023-03-04T03:54:28;5.60;27.50
8152;DHT22;4117;53.622;9.958;2023-03-04T03:56:55;5.60;26.90
8152;DHT22;4117;53.622;9.958;2023-03-04T03:59:22;5.60;30.60
8152;DHT22;4117;53.622;9.958;2023-03-04T04:01:50;5.60;31.10
8152;DHT22;4117;53.622;9.958;2023-03-04T04:04:17;5.60;28.60
8152;DHT22;4117;53.622;9.958;2023-03-04T04:06:44;5.60;27.00
8152;DHT22;4117;53.622;9.958;2023-03-04T04:09:11;5.60;24.30
8152;DHT22;4117;53.622;9.958;2023-03-04T04:11:39;5.60;27.50
8152;DHT22;4117;53.622;9.958;2023-03-04T04:14:06;5.60;29.20
8152;DHT22;4117;53.622;9.958;2023-03-04T04:16:33;5.60;27.10
8152;DHT22;4117;53.622;9.958;2023-03-04T04:19:00;5.60;28.40
8152;DHT22;4117;53.622;9.958;2023-03-04T04:21:26;5.60;25.60
8152;DHT22;4117;53.622;9.958;2023-03-04T04:23:53;5.60;22.50
8152;DHT22;4117;53.622;9.958;2023-03-04T04:26:20;5.60;24.30
8152;DHT22;4117;53.622;9.958;2023-03-04T04:28:48;5.60;21.40
8152;DHT22;4117;53.622;9.958;2023-03-04T04:31:16;5.60;20.00
8152;DHT22;4117;53.622;9.958;2023-03-04T04:33:43;5.60;15.40
8152;DHT22;4117;53.622;9.958;2023-03-04T04:36:12;5.60;20.20
8152;DHT22;4117;53.622;9.958;2023-03-04T04:38:39;5.60;16.10
8152;DHT22;4117;53.622;9.958;2023-03-04T04:41:15;5.60;14.00
8152;DHT22;4117;53.622;9.958;2023-03-04T04:43:43;5.60;13.90
8152;DHT22;4117;53.622;9.958;2023-03-04T04:46:11;5.60;13.50
8152;DHT22;4117;53.622;9.958;2023-03-04T04:48:38;5.70;12.20
8152;DHT22;4117;53.622;9.958;2023-03-04T04:51:05;5.70;13.80
8152;DHT22;4117;53.622;9.958;2023-03-04T04:53:32;5.60;12.00
8152;DHT22;4117;53.622;9.958;2023-03-04T04:55:59;5.70;8.30
8152;DHT22;4117;53.622;9.958;2023-03-04T04:58:26;5.70;14.00
8152;DHT22;4117;53.622;9.958;2023-03-04T05:00:55;5.60;9.60
8152;DHT22;4117;53.622;9.958;2023-03-04T05:03:24;5.60;9.90
8152;DHT22;4117;53.622;9.958;2023-03-04T05:05:51;5.60;9.40
8152;DHT22;4117;53.622;9.958;2023-03-04T05:08:18;5.70;13.80
8152;DHT22;4117;53.622;9.958;2023-03-04T05:10:44;5.60;9.70
8152;DHT22;4117;53.622;9.958;2023-03-04T05:13:11;5.60;11.30
8152;DHT22;4117;53.622;9.958;2023-03-04T05:15:38;5.70;14.10
8152;DHT22;4117;53.622;9.958;2023-03-04T05:18:05;5.60;14.50
8152;DHT22;4117;53.622;9.958;2023-03-04T05:20:33;5.60;17.50
8152;DHT22;4117;53.622;9.958;2023-03-04T05:23:00;5.60;20.70
8152;DHT22;4117;53.622;9.958;2023-03-04T05:25:27;5.60;24.30
8152;DHT22;4117;53.622;9.958;2023-03-04T05:27:54;5.60;24.10
8152;DHT22;4117;53.622;9.958;2023-03-04T05:30:21;5.60;22.40
8152;DHT22;4117;53.622;9.958;2023-03-04T05:32:48;5.60;24.30
8152;DHT22;4117;53.622;9.958;2023-03-04T05:35:15;5.60;24.30
8152;DHT22;4117;53.622;9.958;2023-03-04T05:37:43;5.50;28.40
8152;DHT22;4117;53.622;9.958;2023-03-04T05:40:11;5.50;25.10
8152;DHT22;4117;53.622;9.958;2023-03-04T05:42:38;5.50;24.80
8152;DHT22;4117;53.622;9.958;2023-03-04T05:45:06;5.50;24.20
8152;DHT22;4117;53.622;9.958;2023-03-04T05:47:33;5.40;23.80
8152;DHT22;4117;53.622;9.958;2023-03-04T05:50:00;5.50;20.10
8152;DHT22;4117;53.622;9.958;2023-03-04T05:52:27;5.40;17.70
8152;DHT22;4117;53.622;9.958;2023-03-04T05:54:55;5.40;12.00
8152;DHT22;4117;53.622;9.958;2023-03-04T05:57:22;5.40;13.90
8152;DHT22;4117;53.622;9.958;2023-03-04T05:59:49;5.40;13.80
8152;DHT22;4117;53.622;9.958;2023-03-04T06:02:16;5.40;8.30
8152;DHT22;4117;53.622;9.958;2023-03-04T06:04:43;5.40;1.00
8152;DHT22;4117;53.622;9.958;2023-03-04T06:07:10;5.40;1.60
8152;DHT22;4117;53.622;9.958;2023-03-04T06:09:37;5.40;1.00
8152;DHT22;4117;53.622;9.958;2023-03-04T06:12:05;5.30;1.00
8152;DHT22;4117;53.622;9.958;2023-03-04T06:14:33;5.30;1.00
8152;DHT22;4117;53.622;9.958;2023-03-04T06:16:59;5.30;1.00
8152;DHT22;4117;53.622;9.958;2023-03-04T06:19:26;5.30;1.00
8152;DHT22;4117;53.622;9.958;2023-03-04T06:21:53;5.20;1.00
8152;DHT22;4117;53.622;9.958;2023-03-04T06:24:20;5.20;1.00
8152;DHT22;4117;53.622;9.958;2023-03-04T06:26:47;5.20;1.00
8152;DHT22;4117;53.622;9.958;2023-03-04T06:29:15;5.10;1.00
8152;DHT22;4117;53.622;9.958;2023-03-04T06:31:42;5.10;1.00
8152;DHT22;4117;53.622;9.958;2023-03-04T06:34:09;5.10;1.00
8152;DHT22;4117;53.622;9.958;2023-03-04T06:36:36;5.10;1.00
8152;DHT22;4117;53.622;9.958;2023-03-04T06:39:03;5.10;1.00
8152;DHT22;4117;53.622;9.958;2023-03-04T06:41:30;5.10;1.00
8152;DHT22;4117;53.622;9.958;2023-03-04T06:43:57;5.10;1.00
8152;DHT22;4117;53.622;9.958;2023-03-04T06:46:25;5.00;1.00
8152;DHT22;4117;53.622;9.958;2023-03-04T06:48:52;5.00;1.00
8152;DHT22;4117;53.622;9.958;2023-03-04T06:51:19;5.10;1.00
8152;DHT22;4117;53.622;9.958;2023-03-04T06:53:46;5.10;1.00
8152;DHT22;4117;53.622;9.958;2023-03-04T06:56:13;5.00;1.00
8152;DHT22;4117;53.622;9.958;2023-03-04T06:58:41;5.00;1.00
8152;DHT22;4117;53.622;9.958;2023-03-04T07:01:13;5.00;1.00
8152;DHT22;4117;53.622;9.958;2023-03-04T07:03:42;5.10;1.00
8152;DHT22;4117;53.622;9.958;2023-03-04T07:06:10;5.00;1.00
8152;DHT22;4117;53.622;9.958;2023-03-04T07:08:37;5.00;1.00
8152;DHT22;4117;53.622;9.958;2023-03-04T07:11:04;5.00;1.00
8152;DHT22;4117;53.622;9.958;2023-03-04T07:13:31;5.00;1.00
8152;DHT22;4117;53.622;9.958;2023-03-04T07:16:00;5.10;1.00
8152;DHT22;4117;53.622;9.958;2023-03-04T07:18:26;5.00;1.00
8152;DHT22;4117;53.622;9.958;2023-03-04T07:20:55;5.00;1.00
8152;DHT22;4117;53.622;9.958;2023-03-04T07:23:22;5.00;1.00
8152;DHT22;4117;53.622;9.958;2023-03-04T07:25:49;5.00;1.00
8152;DHT22;4117;53.622;9.958;2023-03-04T07:28:16;5.00;1.00
8152;DHT22;4117;53.622;9.958;2023-03-04T07:30:44;5.00;1.00
8152;DHT22;4117;53.622;9.958;2023-03-04T07:33:11;5.00;1.00
8152;DHT22;4117;53.622;9.958;2023-03-04T07:35:38;5.00;1.00
8152;DHT22;4117;53.622;9.958;2023-03-04T07:38:07;5.10;1.00
8152;DHT22;4117;53.622;9.958;2023-03-04T07:40:34;5.10;1.00
8152;DHT22;4117;53.622;9.958;2023-03-04T07:43:01;5.00;1.00
8152;DHT22;4117;53.622;9.958;2023-03-04T07:45:28;5.00;1.00
8152;DHT22;4117;53.622;9.958;2023-03-04T07:47:56;5.10;1.00
8152;DHT22;4117;53.622;9.958;2023-03-04T07:50:24;5.10;1.00
8152;DHT22;4117;53.622;9.958;2023-03-04T07:52:51;5.10;1.00
8152;DHT22;4117;53.622;9.958;2023-03-04T07:55:19;5.00;1.00
8152;DHT22;4117;53.622;9.958;2023-03-04T07:57:46;5.00;1.00
8152;DHT22;4117;53.622;9.958;2023-03-04T08:00:15;5.00;1.00
8152;DHT22;4117;53.622;9.958;2023-03-04T08:02:42;5.00;1.00
8152;DHT22;4117;53.622;9.958;2023-03-04T08:05:09;5.00;1.00
8152;DHT22;4117;53.622;9.958;2023-03-04T08:07:36;5.00;1.00
8152;DHT22;4117;53.622;9.958;2023-03-04T08:10:04;5.00;1.00
8152;DHT22;4117;53.622;9.958;2023-03-04T08:12:34;5.00;1.00
8152;DHT22;4117;53.622;9.958;2023-03-04T08:15:02;5.00;1.00
8152;DHT22;4117;53.622;9.958;2023-03-04T08:17:29;5.00;1.00
8152;DHT22;4117;53.622;9.958;2023-03-04T08:19:56;5.00;1.00
8152;DHT22;4117;53.622;9.958;2023-03-04T08:22:22;5.00;1.00
8152;DHT22;4117;53.622;9.958;2023-03-04T08:24:49;5.00;1.00
8152;DHT22;4117;53.622;9.958;2023-03-04T08:27:16;5.00;1.00
8152;DHT22;4117;53.622;9.958;2023-03-04T08:29:45;5.00;1.00
8152;DHT22;4117;53.622;9.958;2023-03-04T08:32:12;4.90;1.00
8152;DHT22;4117;53.622;9.958;2023-03-04T08:34:39;5.00;1.00
8152;DHT22;4117;53.622;9.958;2023-03-04T08:37:06;5.00;1.00
8152;DHT22;4117;53.622;9.958;2023-03-04T08:39:35;5.00;1.00
8152;DHT22;4117;53.622;9.958;2023-03-04T08:42:02;5.00;1.00
8152;DHT22;4117;53.622;9.958;2023-03-04T08:44:29;5.00;1.00
8152;DHT22;4117;53.622;9.958;2023-03-04T08:46:58;5.00;1.00
8152;DHT22;4117;53.622;9.958;2023-03-04T08:49:24;4.90;1.00
8152;DHT22;4117;53.622;9.958;2023-03-04T08:51:51;4.90;1.00
8152;DHT22;4117;53.622;9.958;2023-03-04T08:54:18;4.90;1.00
8152;DHT22;4117;53.622;9.958;2023-03-04T08:56:45;5.00;1.00
8152;DHT22;4117;53.622;9.958;2023-03-04T08:59:12;4.90;1.00
8152;DHT22;4117;53.622;9.958;2023-03-04T09:01:39;4.90;1.00
8152;DHT22;4117;53.622;9.958;2023-03-04T09:04:07;4.90;1.00
8152;DHT22;4117;53.622;9.958;2023-03-04T09:06:34;4.90;1.00
8152;DHT22;4117;53.622;9.958;2023-03-04T09:09:01;4.90;1.00
8152;DHT22;4117;53.622;9.958;2023-03-04T09:11:28;4.90;1.00
8152;DHT22;4117;53.622;9.958;2023-03-04T09:13:55;4.90;1.00
8152;DHT22;4117;53.622;9.958;2023-03-04T09:16:22;4.90;1.00
8152;DHT22;4117;53.622;9.958;2023-03-04T09:18:49;4.90;1.00
8152;DHT22;4117;53.622;9.958;2023-03-04T09:21:17;5.00;1.00
8152;DHT22;4117;53.622;9.958;2023-03-04T09:23:44;5.00;1.00
8152;DHT22;4117;53.622;9.958;2023-03-04T09:26:17;5.00;1.00
8152;DHT22;4117;53.622;9.958;2023-03-04T09:28:45;4.90;1.00
8152;DHT22;4117;53.622;9.958;2023-03-04T09:31:14;5.00;1.00
8152;DHT22;4117;53.622;9.958;2023-03-04T09:33:41;5.00;1.00
8152;DHT22;4117;53.622;9.958;2023-03-04T09:36:09;5.00;1.00
8152;DHT22;4117;53.622;9.958;2023-03-04T09:38:38;5.00;1.00
8152;DHT22;4117;53.622;9.958;2023-03-04T09:41:09;5.00;1.00
8152;DHT22;4117;53.622;9.958;2023-03-04T09:43:37;5.00;1.00
8152;DHT22;4117;53.622;9.958;2023-03-04T09:46:09;5.00;1.00
8152;DHT22;4117;53.622;9.958;2023-03-04T09:48:41;5.10;1.00
8152;DHT22;4117;53.622;9.958;2023-03-04T09:51:34;5.10;1.00
8152;DHT22;4117;53.622;9.958;2023-03-04T09:54:09;5.10;1.00
8152;DHT22;4117;53.622;9.958;2023-03-04T09:56:38;5.10;1.00
8152;DHT22;4117;53.622;9.958;2023-03-04T09:59:14;5.10;1.00
8152;DHT22;4117;53.622;9.958;2023-03-04T10:01:46;5.20;1.00
8152;DHT22;4117;53.622;9.958;2023-03-04T10:04:28;5.10;1.00
8152;DHT22;4117;53.622;9.958;2023-03-04T10:06:57;5.20;1.00
8152;DHT22;4117;53.622;9.958;2023-03-04T10:09:28;5.20;1.00
8152;DHT22;4117;53.622;9.958;2023-03-04T10:12:00;5.20;1.00
8152;DHT22;4117;53.622;9.958;2023-03-04T10:14:37;5.20;1.00
8152;DHT22;4117;53.622;9.958;2023-03-04T10:17:12;5.20;1.00
8152;DHT22;4117;53.622;9.958;2023-03-04T10:19:52;5.20;1.00
8152;DHT22;4117;53.622;9.958;2023-03-04T10:22:27;5.20;1.00
8152;DHT22;4117;53.622;9.958;2023-03-04T10:24:59;5.30;1.00
8152;DHT22;4117;53.622;9.958;2023-03-04T10:27:28;5.40;1.00
8152;DHT22;4117;53.622;9.958;2023-03-04T10:29:57;5.40;1.00
8152;DHT22;4117;53.622;9.958;2023-03-04T10:32:25;5.40;1.00
8152;DHT22;4117;53.622;9.958;2023-03-04T10:34:52;5.40;1.00
8152;DHT22;4117;53.622;9.958;2023-03-04T10:37:19;5.40;1.00
8152;DHT22;4117;53.622;9.958;2023-03-04T10:39:47;5.50;1.00
8152;DHT22;4117;53.622;9.958;2023-03-04T10:42:27;5.40;1.00
8152;DHT22;4117;53.622;9.958;2023-03-04T10:45:01;5.60;1.00
8152;DHT22;4117;53.622;9.958;2023-03-04T10:47:30;5.60;1.00
8152;DHT22;4117;53.622;9.958;2023-03-04T10:50:00;5.40;1.00
8152;DHT22;4117;53.622;9.958;2023-03-04T10:52:28;5.50;1.00
8152;DHT22;4117;53.622;9.958;2023-03-04T10:54:57;5.50;1.00
8152;DHT22;4117;53.622;9.958;2023-03-04T10:57:32;5.60;1.00
8152;DHT22;4117;53.622;9.958;2023-03-04T11:00:02;5.70;1.00
8152;DHT22;4117;53.622;9.958;2023-03-04T11:02:31;5.70;1.00
8152;DHT22;4117;53.622;9.958;2023-03-04T11:05:15;5.70;1.00
8152;DHT22;4117;53.622;9.958;2023-03-04T11:07:44;5.70;1.00
8152;DHT22;4117;53.622;9.958;2023-03-04T11:10:16;5.70;1.00
8152;DHT22;4117;53.622;9.958;2023-03-04T11:12:49;5.70;1.00
8152;DHT22;4117;53.622;9.958;2023-03-04T11:15:19;5.80;1.00
8152;DHT22;4117;53.622;9.958;2023-03-04T11:17:51;5.80;1.00
8152;DHT22;4117;53.622;9.958;2023-03-04T11:20:28;5.80;1.00
8152;DHT22;4117;53.622;9.958;2023-03-04T11:22:59;5.80;1.00
8152;DHT22;4117;53.622;9.958;2023-03-04T11:25:32;5.80;1.00
8152;DHT22;4117;53.622;9.958;2023-03-04T11:28:02;5.70;1.00
8152;DHT22;4117;53.622;9.958;2023-03-04T11:30:37;5.80;1.00
8152;DHT22;4117;53.622;9.958;2023-03-04T11:33:21;5.70;1.00
8152;DHT22;4117;53.622;9.958;2023-03-04T11:35:54;5.80;1.00
8152;DHT22;4117;53.622;9.958;2023-03-04T11:38:26;5.80;1.00
8152;DHT22;4117;53.622;9.958;2023-03-04T11:41:02;5.80;1.00
8152;DHT22;4117;53.622;9.958;2023-03-04T11:43:35;5.80;1.00
8152;DHT22;4117;53.622;9.958;2023-03-04T11:46:37;5.90;1.00
8152;DHT22;4117;53.622;9.958;2023-03-04T11:49:28;6.00;1.00
8152;DHT22;4117;53.622;9.958;2023-03-04T11:52:04;6.00;1.00
8152;DHT22;4117;53.622;9.958;2023-03-04T11:54:41;6.00;1.00
8152;DHT22;4117;53.622;9.958;2023-03-04T11:57:19;6.00;1.00
8152;DHT22;4117;53.622;9.958;2023-03-04T11:59:55;6.00;1.00
8152;DHT22;4117;53.622;9.958;2023-03-04T12:02:31;6.00;1.00
8152;DHT22;4117;53.622;9.958;2023-03-04T12:05:19;6.10;1.00
8152;DHT22;4117;53.622;9.958;2023-03-04T12:08:16;6.10;1.00
8152;DHT22;4117;53.622;9.958;2023-03-04T12:10:54;6.00;1.00
8152;DHT22;4117;53.622;9.958;2023-03-04T12:13:34;6.10;1.00
8152;DHT22;4117;53.622;9.958;2023-03-04T12:16:18;6.10;1.00
8152;DHT22;4117;53.622;9.958;2023-03-04T12:19:01;6.20;1.00
8152;DHT22;4117;53.622;9.958;2023-03-04T12:21:50;6.20;1.00
8152;DHT22;4117;53.622;9.958;2023-03-04T12:24:50;6.10;1.00
8152;DHT22;4117;53.622;9.958;2023-03-04T12:27:25;6.10;1.00
8152;DHT22;4117;53.622;9.958;2023-03-04T12:29:57;6.10;1.00
8152;DHT22;4117;53.622;9.958;2023-03-04T12:32:34;6.10;1.00
8152;DHT22;4117;53.622;9.958;2023-03-04T12:38:02;6.10;1.00
8152;DHT22;4117;53.622;9.958;2023-03-04T12:40:42;6.10;1.00
8152;DHT22;4117;53.622;9.958;2023-03-04T12:43:31;6.10;1.00
8152;DHT22;4117;53.622;9.958;2023-03-04T12:46:10;6.10;1.00
8152;DHT22;4117;53.622;9.958;2023-03-04T12:48:41;6.20;1.00
8152;DHT22;4117;53.622;9.958;2023-03-04T12:51:21;6.40;1.00
8152;DHT22;4117;53.622;9.958;2023-03-04T12:53:59;6.50;1.00
8152;DHT22;4117;53.622;9.958;2023-03-04T12:56:34;6.40;1.00
8152;DHT22;4117;53.622;9.958;2023-03-04T12:59:02;6.20;1.00
8152;DHT22;4117;53.622;9.958;2023-03-04T13:01:37;6.20;1.00
8152;DHT22;4117;53.622;9.958;2023-03-04T13:04:11;6.20;1.00
8152;DHT22;4117;53.622;9.958;2023-03-04T13:06:45;6.10;1.00
8152;DHT22;4117;53.622;9.958;2023-03-04T13:09:18;6.20;1.00
8152;DHT22;4117;53.622;9.958;2023-03-04T13:11:53;6.20;1.00
8152;DHT22;4117;53.622;9.958;2023-03-04T13:14:25;6.20;1.00
8152;DHT22;4117;53.622;9.958;2023-03-04T13:16:53;6.20;1.00
8152;DHT22;4117;53.622;9.958;2023-03-04T13:19:42;6.20;1.00
8152;DHT22;4117;53.622;9.958;2023-03-04T13:25:39;6.40;1.00
8152;DHT22;4117;53.622;9.958;2023-03-04T13:28:27;6.30;1.00
8152;DHT22;4117;53.622;9.958;2023-03-04T13:31:17;6.20;1.00
8152;DHT22;4117;53.622;9.958;2023-03-04T13:33:50;6.20;1.00
8152;DHT22;4117;53.622;9.958;2023-03-04T13:36:53;6.30;1.00
8152;DHT22;4117;53.622;9.958;2023-03-04T13:39:31;6.30;1.00
8152;DHT22;4117;53.622;9.958;2023-03-04T13:41:59;6.30;1.00
8152;DHT22;4117;53.622;9.958;2023-03-04T13:44:55;6.20;1.00
8152;DHT22;4117;53.622;9.958;2023-03-04T13:47:29;6.10;1.00
8152;DHT22;4117;53.622;9.958;2023-03-04T13:50:28;6.20;1.00
8152;DHT22;4117;53.622;9.958;2023-03-04T13:53:26;6.30;1.00
8152;DHT22;4117;53.622;9.958;2023-03-04T13:56:26;6.20;1.00
8152;DHT22;4117;53.622;9.958;2023-03-04T13:59:11;6.00;1.00
8152;DHT22;4117;53.622;9.958;2023-03-04T14:01:50;6.10;1.00
8152;DHT22;4117;53.622;9.958;2023-03-04T14:04:19;6.10;1.00
8152;DHT22;4117;53.622;9.958;2023-03-04T14:06:46;6.10;1.00
8152;DHT22;4117;53.622;9.958;2023-03-04T14:09:18;6.10;1.00
8152;DHT22;4117;53.622;9.958;2023-03-04T14:11:47;6.20;1.00
8152;DHT22;4117;53.622;9.958;2023-03-04T14:14:19;6.10;1.00
8152;DHT22;4117;53.622;9.958;2023-03-04T14:16:49;6.10;1.00
8152;DHT22;4117;53.622;9.958;2023-03-04T14:19:23;6.20;1.00
8152;DHT22;4117;53.622;9.958;2023-03-04T14:21:51;6.10;1.00
8152;DHT22;4117;53.622;9.958;2023-03-04T14:24:20;6.10;1.00
8152;DHT22;4117;53.622;9.958;2023-03-04T14:26:49;6.10;1.00
8152;DHT22;4117;53.622;9.958;2023-03-04T14:29:24;6.10;1.00
8152;DHT22;4117;53.622;9.958;2023-03-04T14:31:52;6.10;1.00
8152;DHT22;4117;53.622;9.958;2023-03-04T14:34:24;6.00;1.00
8152;DHT22;4117;53.622;9.958;2023-03-04T14:36:52;6.00;1.00
8152;DHT22;4117;53.622;9.958;2023-03-04T14:39:30;6.00;1.00
8152;DHT22;4117;53.622;9.958;2023-03-04T14:42:00;6.00;1.00
8152;DHT22;4117;53.622;9.958;2023-03-04T14:44:31;6.00;1.00
8152;DHT22;4117;53.622;9.958;2023-03-04T14:47:08;6.00;1.00
8152;DHT22;4117;53.622;9.958;2023-03-04T14:49:38;5.90;1.00
8152;DHT22;4117;53.622;9.958;2023-03-04T14:52:05;6.00;1.00
8152;DHT22;4117;53.622;9.958;2023-03-04T14:54:37;5.90;1.00
8152;DHT22;4117;53.622;9.958;2023-03-04T14:57:21;5.80;1.00
8152;DHT22;4117;53.622;9.958;2023-03-04T14:59:49;5.80;1.00
8152;DHT22;4117;53.622;9.958;2023-03-04T15:02:22;5.70;1.00
8152;DHT22;4117;53.622;9.958;2023-03-04T15:04:54;5.70;1.00
8152;DHT22;4117;53.622;9.958;2023-03-04T15:07:28;5.70;1.00
8152;DHT22;4117;53.622;9.958;2023-03-04T15:09:58;5.60;1.00
8152;DHT22;4117;53.622;9.958;2023-03-04T15:12:27;5.60;1.00
8152;DHT22;4117;53.622;9.958;2023-03-04T15:14:55;5.60;1.00
8152;DHT22;4117;53.622;9.958;2023-03-04T15:17:29;5.60;1.00
8152;DHT22;4117;53.622;9.958;2023-03-04T15:19:59;5.60;1.00
8152;DHT22;4117;53.622;9.958;2023-03-04T15:22:26;5.60;1.00
8152;DHT22;4117;53.622;9.958;2023-03-04T15:24:54;5.50;1.00
8152;DHT22;4117;53.622;9.958;2023-03-04T15:27:23;5.40;1.00
8152;DHT22;4117;53.622;9.958;2023-03-04T15:29:51;5.50;1.00
8152;DHT22;4117;53.622;9.958;2023-03-04T15:32:21;5.50;1.00
8152;DHT22;4117;53.622;9.958;2023-03-04T15:34:48;5.50;1.00
8152;DHT22;4117;53.622;9.958;2023-03-04T15:37:19;5.50;1.00
8152;DHT22;4117;53.622;9.958;2023-03-04T15:39:47;5.50;1.00
8152;DHT22;4117;53.622;9.958;2023-03-04T15:42:14;5.50;1.00
8152;DHT22;4117;53.622;9.958;2023-03-04T15:44:43;5.50;1.00
8152;DHT22;4117;53.622;9.958;2023-03-04T15:47:10;5.40;1.00
8152;DHT22;4117;53.622;9.958;2023-03-04T15:49:38;5.40;1.00
8152;DHT22;4117;53.622;9.958;2023-03-04T15:52:06;5.30;1.00
8152;DHT22;4117;53.622;9.958;2023-03-04T15:54:38;5.30;1.00
8152;DHT22;4117;53.622;9.958;2023-03-04T15:57:11;5.30;1.00
8152;DHT22;4117;53.622;9.958;2023-03-04T15:59:40;5.30;1.00
8152;DHT22;4117;53.622;9.958;2023-03-04T16:02:14;5.40;1.00
8152;DHT22;4117;53.622;9.958;2023-03-04T16:04:44;5.30;1.00
8152;DHT22;4117;53.622;9.958;2023-03-04T16:07:15;5.30;1.00
8152;DHT22;4117;53.622;9.958;2023-03-04T16:09:43;5.20;1.00
8152;DHT22;4117;53.622;9.958;2023-03-04T16:12:11;5.20;1.00
8152;DHT22;4117;53.622;9.958;2023-03-04T16:14:38;5.20;1.00
8152;DHT22;4117;53.622;9.958;2023-03-04T16:17:07;5.10;1.00
8152;DHT22;4117;53.622;9.958;2023-03-04T16:19:36;5.10;1.00
8152;DHT22;4117;53.622;9.958;2023-03-04T16:22:03;5.10;1.00
8152;DHT22;4117;53.622;9.958;2023-03-04T16:24:32;5.00;1.00
8152;DHT22;4117;53.622;9.958;2023-03-04T16:26:59;5.10;1.00
8152;DHT22;4117;53.622;9.958;2023-03-04T16:29:26;5.10;1.00
8152;DHT22;4117;53.622;9.958;2023-03-04T16:31:54;5.10;1.00
8152;DHT22;4117;53.622;9.958;2023-03-04T16:34:21;5.00;1.00
8152;DHT22;4117;53.622;9.958;2023-03-04T16:36:49;5.00;1.00
8152;DHT22;4117;53.622;9.958;2023-03-04T16:39:20;5.00;1.00
8152;DHT22;4117;53.622;9.958;2023-03-04T16:41:47;5.00;1.00
8152;DHT22;4117;53.622;9.958;2023-03-04T16:44:15;5.00;1.00
8152;DHT22;4117;53.622;9.958;2023-03-04T16:46:41;5.00;1.00
8152;DHT22;4117;53.622;9.958;2023-03-04T16:49:09;5.00;1.00
8152;DHT22;4117;53.622;9.958;2023-03-04T16:51:39;4.90;1.00
8152;DHT22;4117;53.622;9.958;2023-03-04T16:54:12;4.90;1.00
8152;DHT22;4117;53.622;9.958;2023-03-04T16:56:40;4.80;1.00